sensor_id;sensor_type;location;lat;lon;timestamp;P1;durP1;ratioP1;P2;durP2;ratioP2
19848;SDS011;10085;51.120;6.956;2023-06-22T00:04:12;4.60;;;3.58;;
19848;SDS011;10085;51.120;6.956;2023-06-22T00:09:15;4.43;;;3.47;;
19848;SDS011;10085;51.120;6.956;2023-06-22T00:14:19;4.93;;;3.53;;
19848;SDS011;10085;51.120;6.956;2023-06-22T00:19:22;5.50;;;3.55;;
19848;SDS011;10085;51.120;6.956;2023-06-22T00:24:25;5.32;;;3.80;;
19848;SDS011;10085;51.120;6.956;2023-06-22T00:29:29;5.85;;;3.60;;
19848;SDS011;10085;51.120;6.956;2023-06-22T00:34:32;4.63;;;3.42;;
19848;SDS011;10085;51.120;6.956;2023-06-22T00:39:34;5.50;;;3.70;;
19848;SDS011;10085;51.120;6.956;2023-06-22T00:44:39;4.55;;;3.38;;
19848;SDS011;10085;51.120;6.956;2023-06-22T00:49:41;4.72;;;3.55;;
19848;SDS011;10085;51.120;6.956;2023-06-22T00:54:45;4.88;;;3.38;;
19848;SDS011;10085;51.120;6.956;2023-06-22T00:59:49;3.85;;;3.20;;
19848;SDS011;10085;51.120;6.956;2023-06-22T01:04:52;3.95;;;3.35;;
19848;SDS011;10085;51.120;6.956;2023-06-22T01:09:57;7.05;;;3.53;;
19848;SDS011;10085;51.120;6.956;2023-06-22T01:15:07;4.22;;;3.38;;
19848;SDS011;10085;51.120;6.956;2023-06-22T01:20:13;4.18;;;3.50;;
19848;SDS011;10085;51.120;6.956;2023-06-22T01:25:19;3.88;;;3.13;;
19848;SDS011;10085;51.120;6.956;2023-06-22T01:30:25;4.20;;;3.28;;
19848;SDS011;10085;51.120;6.956;2023-06-22T01:35:30;4.88;;;3.55;;
19848;SDS011;10085;51.120;6.956;2023-06-22T01:40:35;3.83;;;3.25;;
19848;SDS011;10085;51.120;6.956;2023-06-22T01:45:40;4.03;;;3.20;;
19848;SDS011;10085;51.120;6.956;2023-06-22T01:50:43;5.25;;;3.65;;
19848;SDS011;10085;51.120;6.956;2023-06-22T01:55:46;4.55;;;3.15;;
19848;SDS011;10085;51.120;6.956;2023-06-22T02:00:50;5.35;;;3.25;;
19848;SDS011;10085;51.120;6.956;2023-06-22T02:05:58;6.82;;;3.60;;
19848;SDS011;10085;51.120;6.956;2023-06-22T02:11:04;5.32;;;3.83;;
19848;SDS011;10085;51.120;6.956;2023-06-22T02:16:11;5.45;;;3.65;;
19848;SDS011;10085;51.120;6.956;2023-06-22T02:21:15;4.32;;;3.47;;
19848;SDS011;10085;51.120;6.956;2023-06-22T02:26:17;4.38;;;3.50;;
19848;SDS011;10085;51.120;6.956;2023-06-22T02:31:22;5.03;;;3.67;;
19848;SDS011;10085;51.120;6.956;2023-06-22T02:36:32;4.32;;;3.45;;
19848;SDS011;10085;51.120;6.956;2023-06-22T02:41:35;5.13;;;3.80;;
19848;SDS011;10085;51.120;6.956;2023-06-22T02:46:39;4.72;;;3.67;;
19848;SDS011;10085;51.120;6.956;2023-06-22T02:51:44;5.03;;;3.78;;
19848;SDS011;10085;51.120;6.956;2023-06-22T02:56:50;4.82;;;3.75;;
19848;SDS011;10085;51.120;6.956;2023-06-22T03:01:56;5.63;;;3.92;;
19848;SDS011;10085;51.120;6.956;2023-06-22T03:07:03;4.50;;;3.78;;
19848;SDS011;10085;51.120;6.956;2023-06-22T03:12:08;4.32;;;3.33;;
19848;SDS011;10085;51.120;6.956;2023-06-22T03:17:25;4.72;;;3.55;;
19848;SDS011;10085;51.120;6.956;2023-06-22T03:22:27;5.05;;;3.80;;
19848;SDS011;10085;51.120;6.956;2023-06-22T03:27:30;4.60;;;3.70;;
19848;SDS011;10085;51.120;6.956;2023-06-22T03:32:35;4.88;;;3.92;;
19848;SDS011;10085;51.120;6.956;2023-06-22T03:37:40;5.47;;;4.00;;
19848;SDS011;10085;51.120;6.956;2023-06-22T03:42:43;6.90;;;4.10;;
19848;SDS011;10085;51.120;6.956;2023-06-22T03:47:47;4.85;;;3.70;;
19848;SDS011;10085;51.120;6.956;2023-06-22T03:52:50;5.45;;;3.70;;
19848;SDS011;10085;51.120;6.956;2023-06-22T03:57:54;5.82;;;3.85;;
19848;SDS011;10085;51.120;6.956;2023-06-22T04:03:00;4.72;;;3.88;;
19848;SDS011;10085;51.120;6.956;2023-06-22T04:08:03;4.47;;;3.60;;
19848;SDS011;10085;51.120;6.956;2023-06-22T04:13:06;4.22;;;3.40;;
19848;SDS011;10085;51.120;6.956;2023-06-22T04:18:10;4.40;;;3.58;;
19848;SDS011;10085;51.120;6.956;2023-06-22T04:23:14;5.88;;;3.65;;
19848;SDS011;10085;51.120;6.956;2023-06-22T04:28:17;4.05;;;3.60;;
19848;SDS011;10085;51.120;6.956;2023-06-22T04:33:21;5.82;;;3.53;;
19848;SDS011;10085;51.120;6.956;2023-06-22T04:38:24;5.20;;;3.05;;
19848;SDS011;10085;51.120;6.956;2023-06-22T04:43:27;4.45;;;3.70;;
19848;SDS011;10085;51.120;6.956;2023-06-22T04:48:33;5.57;;;3.35;;
19848;SDS011;10085;51.120;6.956;2023-06-22T04:53:36;5.20;;;3.47;;
19848;SDS011;10085;51.120;6.956;2023-06-22T04:58:38;4.53;;;3.33;;
19848;SDS011;10085;51.120;6.956;2023-06-22T05:03:43;4.80;;;3.50;;
19848;SDS011;10085;51.120;6.956;2023-06-22T05:08:46;4.65;;;3.53;;
19848;SDS011;10085;51.120;6.956;2023-06-22T05:13:49;4.25;;;3.30;;
19848;SDS011;10085;51.120;6.956;2023-06-22T05:18:53;4.78;;;3.65;;
19848;SDS011;10085;51.120;6.956;2023-06-22T05:23:57;6.63;;;3.90;;
19848;SDS011;10085;51.120;6.956;2023-06-22T05:29:02;5.60;;;3.83;;
19848;SDS011;10085;51.120;6.956;2023-06-22T05:34:06;5.00;;;3.63;;
19848;SDS011;10085;51.120;6.956;2023-06-22T05:39:12;5.55;;;3.58;;
19848;SDS011;10085;51.120;6.956;2023-06-22T05:44:16;4.93;;;3.83;;
19848;SDS011;10085;51.120;6.956;2023-06-22T05:49:20;4.85;;;3.70;;
19848;SDS011;10085;51.120;6.956;2023-06-22T05:54:27;6.63;;;4.15;;
19848;SDS011;10085;51.120;6.956;2023-06-22T05:59:30;5.38;;;3.90;;
19848;SDS011;10085;51.120;6.956;2023-06-22T06:04:34;5.35;;;4.15;;
19848;SDS011;10085;51.120;6.956;2023-06-22T06:09:37;5.22;;;4.20;;
19848;SDS011;10085;51.120;6.956;2023-06-22T06:14:40;6.70;;;4.35;;
19848;SDS011;10085;51.120;6.956;2023-06-22T06:19:44;5.35;;;4.20;;
19848;SDS011;10085;51.120;6.956;2023-06-22T06:24:47;6.05;;;4.03;;
19848;SDS011;10085;51.120;6.956;2023-06-22T06:29:50;7.30;;;4.60;;
19848;SDS011;10085;51.120;6.956;2023-06-22T06:34:54;6.43;;;4.03;;
19848;SDS011;10085;51.120;6.956;2023-06-22T06:39:57;5.85;;;4.05;;
19848;SDS011;10085;51.120;6.956;2023-06-22T06:45:00;6.10;;;4.55;;
19848;SDS011;10085;51.120;6.956;2023-06-22T06:50:05;8.75;;;4.55;;
19848;SDS011;10085;51.120;6.956;2023-06-22T06:55:09;7.18;;;4.65;;
19848;SDS011;10085;51.120;6.956;2023-06-22T07:00:14;6.35;;;4.75;;
19848;SDS011;10085;51.120;6.956;2023-06-22T07:05:31;7.07;;;4.47;;
19848;SDS011;10085;51.120;6.956;2023-06-22T07:10:38;9.55;;;4.40;;
19848;SDS011;10085;51.120;6.956;2023-06-22T07:15:41;6.07;;;4.50;;
19848;SDS011;10085;51.120;6.956;2023-06-22T07:20:45;5.78;;;4.68;;
19848;SDS011;10085;51.120;6.956;2023-06-22T07:25:48;6.35;;;4.55;;
19848;SDS011;10085;51.120;6.956;2023-06-22T07:30:51;6.10;;;4.47;;
19848;SDS011;10085;51.120;6.956;2023-06-22T07:35:56;6.75;;;4.55;;
19848;SDS011;10085;51.120;6.956;2023-06-22T07:40:58;7.22;;;4.50;;
19848;SDS011;10085;51.120;6.956;2023-06-22T07:46:01;7.53;;;5.07;;
19848;SDS011;10085;51.120;6.956;2023-06-22T07:51:05;5.13;;;4.20;;
19848;SDS011;10085;51.120;6.956;2023-06-22T07:56:09;5.45;;;4.60;;
19848;SDS011;10085;51.120;6.956;2023-06-22T08:01:12;5.35;;;4.40;;
19848;SDS011;10085;51.120;6.956;2023-06-22T08:06:17;6.18;;;4.75;;
19848;SDS011;10085;51.120;6.956;2023-06-22T08:11:20;6.10;;;4.43;;
19848;SDS011;10085;51.120;6.956;2023-06-22T08:16:25;5.50;;;4.30;;
19848;SDS011;10085;51.120;6.956;2023-06-22T08:21:29;5.55;;;4.57;;
19848;SDS011;10085;51.120;6.956;2023-06-22T08:26:32;5.45;;;4.35;;
19848;SDS011;10085;51.120;6.956;2023-06-22T08:31:38;5.95;;;4.80;;
19848;SDS011;10085;51.120;6.956;2023-06-22T08:36:42;5.38;;;4.57;;
19848;SDS011;10085;51.120;6.956;2023-06-22T08:41:52;9.68;;;4.85;;
19848;SDS011;10085;51.120;6.956;2023-06-22T08:46:55;5.00;;;4.30;;
19848;SDS011;10085;51.120;6.956;2023-06-22T08:51:59;7.80;;;4.80;;
19848;SDS011;10085;51.120;6.956;2023-06-22T08:57:02;5.68;;;4.75;;
19848;SDS011;10085;51.120;6.956;2023-06-22T09:02:05;7.10;;;4.75;;
19848;SDS011;10085;51.120;6.956;2023-06-22T09:07:09;7.57;;;4.65;;
19848;SDS011;10085;51.120;6.956;2023-06-22T09:12:13;8.27;;;4.90;;
19848;SDS011;10085;51.120;6.956;2023-06-22T09:17:15;5.65;;;4.55;;
19848;SDS011;10085;51.120;6.956;2023-06-22T09:22:20;5.40;;;4.50;;
19848;SDS011;10085;51.120;6.956;2023-06-22T09:27:23;6.93;;;4.78;;
19848;SDS011;10085;51.120;6.956;2023-06-22T09:32:25;5.90;;;4.85;;
19848;SDS011;10085;51.120;6.956;2023-06-22T09:37:30;5.85;;;4.82;;
19848;SDS011;10085;51.120;6.956;2023-06-22T09:42:33;6.45;;;4.72;;
19848;SDS011;10085;51.120;6.956;2023-06-22T09:47:36;5.28;;;4.28;;
19848;SDS011;10085;51.120;6.956;2023-06-22T09:52:41;7.32;;;5.05;;
19848;SDS011;10085;51.120;6.956;2023-06-22T09:57:49;5.97;;;4.90;;
19848;SDS011;10085;51.120;6.956;2023-06-22T10:02:52;5.70;;;4.82;;
19848;SDS011;10085;51.120;6.956;2023-06-22T10:08:04;8.47;;;4.77;;
19848;SDS011;10085;51.120;6.956;2023-06-22T10:13:09;7.18;;;4.85;;
19848;SDS011;10085;51.120;6.956;2023-06-22T10:18:13;7.88;;;4.85;;
19848;SDS011;10085;51.120;6.956;2023-06-22T10:23:17;5.80;;;4.90;;
19848;SDS011;10085;51.120;6.956;2023-06-22T10:28:21;8.43;;;4.95;;
19848;SDS011;10085;51.120;6.956;2023-06-22T10:33:23;7.47;;;5.32;;
19848;SDS011;10085;51.120;6.956;2023-06-22T10:38:28;6.78;;;5.15;;
19848;SDS011;10085;51.120;6.956;2023-06-22T10:43:31;5.95;;;4.70;;
19848;SDS011;10085;51.120;6.956;2023-06-22T10:48:34;6.25;;;5.13;;
19848;SDS011;10085;51.120;6.956;2023-06-22T10:53:38;6.93;;;4.95;;
19848;SDS011;10085;51.120;6.956;2023-06-22T10:58:41;6.50;;;5.07;;
19848;SDS011;10085;51.120;6.956;2023-06-22T11:03:44;6.32;;;4.97;;
19848;SDS011;10085;51.120;6.956;2023-06-22T11:08:48;5.70;;;4.80;;
19848;SDS011;10085;51.120;6.956;2023-06-22T11:14:07;6.45;;;4.93;;
19848;SDS011;10085;51.120;6.956;2023-06-22T11:24:29;6.47;;;4.97;;
19848;SDS011;10085;51.120;6.956;2023-06-22T11:29:32;8.10;;;5.50;;
19848;SDS011;10085;51.120;6.956;2023-06-22T11:34:55;6.20;;;4.97;;
19848;SDS011;10085;51.120;6.956;2023-06-22T11:39:59;6.43;;;4.80;;
19848;SDS011;10085;51.120;6.956;2023-06-22T11:45:08;6.00;;;4.57;;
19848;SDS011;10085;51.120;6.956;2023-06-22T11:50:11;6.63;;;4.88;;
19848;SDS011;10085;51.120;6.956;2023-06-22T11:55:15;6.95;;;4.72;;
19848;SDS011;10085;51.120;6.956;2023-06-22T12:00:18;7.78;;;5.18;;
19848;SDS011;10085;51.120;6.956;2023-06-22T12:05:23;6.18;;;4.80;;
19848;SDS011;10085;51.120;6.956;2023-06-22T12:10:28;7.05;;;5.30;;
19848;SDS011;10085;51.120;6.956;2023-06-22T12:15:31;7.68;;;4.90;;
19848;SDS011;10085;51.120;6.956;2023-06-22T12:20:34;6.97;;;5.05;;
19848;SDS011;10085;51.120;6.956;2023-06-22T12:25:38;7.47;;;5.00;;
19848;SDS011;10085;51.120;6.956;2023-06-22T12:30:41;8.93;;;5.50;;
19848;SDS011;10085;51.120;6.956;2023-06-22T12:35:45;6.97;;;5.03;;
19848;SDS011;10085;51.120;6.956;2023-06-22T12:40:51;6.78;;;5.10;;
19848;SDS011;10085;51.120;6.956;2023-06-22T12:45:54;6.78;;;5.22;;
19848;SDS011;10085;51.120;6.956;2023-06-22T12:50:58;6.40;;;5.03;;
19848;SDS011;10085;51.120;6.956;2023-06-22T12:56:02;5.32;;;4.13;;
19848;SDS011;10085;51.120;6.956;2023-06-22T13:01:05;5.38;;;4.68;;
19848;SDS011;10085;51.120;6.956;2023-06-22T13:06:08;5.13;;;4.25;;
19848;SDS011;10085;51.120;6.956;2023-06-22T13:11:12;6.68;;;4.75;;
19848;SDS011;10085;51.120;6.956;2023-06-22T13:16:18;8.55;;;4.70;;
19848;SDS011;10085;51.120;6.956;2023-06-22T13:21:21;6.55;;;4.72;;
19848;SDS011;10085;51.120;6.956;2023-06-22T13:26:25;6.35;;;4.80;;
19848;SDS011;10085;51.120;6.956;2023-06-22T13:31:30;5.65;;;4.50;;
19848;SDS011;10085;51.120;6.956;2023-06-22T13:36:32;6.18;;;4.80;;
19848;SDS011;10085;51.120;6.956;2023-06-22T13:41:37;5.45;;;4.53;;
19848;SDS011;10085;51.120;6.956;2023-06-22T13:46:39;6.13;;;5.25;;
19848;SDS011;10085;51.120;6.956;2023-06-22T13:51:42;6.97;;;5.10;;
19848;SDS011;10085;51.120;6.956;2023-06-22T13:56:46;8.38;;;5.00;;
19848;SDS011;10085;51.120;6.956;2023-06-22T14:01:49;9.73;;;5.55;;
19848;SDS011;10085;51.120;6.956;2023-06-22T14:06:52;10.55;;;5.40;;
19848;SDS011;10085;51.120;6.956;2023-06-22T14:12:01;8.30;;;5.10;;
19848;SDS011;10085;51.120;6.956;2023-06-22T14:17:06;9.75;;;5.15;;
19848;SDS011;10085;51.120;6.956;2023-06-22T14:22:08;12.38;;;5.28;;
19848;SDS011;10085;51.120;6.956;2023-06-22T14:27:13;6.97;;;4.97;;
19848;SDS011;10085;51.120;6.956;2023-06-22T14:32:15;11.30;;;5.45;;
19848;SDS011;10085;51.120;6.956;2023-06-22T14:37:18;7.40;;;4.45;;
19848;SDS011;10085;51.120;6.956;2023-06-22T14:42:22;7.57;;;5.18;;
19848;SDS011;10085;51.120;6.956;2023-06-22T14:47:28;7.15;;;5.05;;
19848;SDS011;10085;51.120;6.956;2023-06-22T14:52:31;6.80;;;4.55;;
19848;SDS011;10085;51.120;6.956;2023-06-22T14:57:35;5.53;;;4.10;;
19848;SDS011;10085;51.120;6.956;2023-06-22T15:02:38;5.05;;;4.15;;
19848;SDS011;10085;51.120;6.956;2023-06-22T15:07:41;5.63;;;4.07;;
19848;SDS011;10085;51.120;6.956;2023-06-22T15:12:45;10.30;;;5.13;;
19848;SDS011;10085;51.120;6.956;2023-06-22T15:17:48;7.72;;;4.90;;
19848;SDS011;10085;51.120;6.956;2023-06-22T15:22:51;7.07;;;5.00;;
19848;SDS011;10085;51.120;6.956;2023-06-22T15:27:55;7.45;;;5.00;;
19848;SDS011;10085;51.120;6.956;2023-06-22T15:32:58;6.80;;;5.40;;
19848;SDS011;10085;51.120;6.956;2023-06-22T15:38:02;8.05;;;4.78;;
19848;SDS011;10085;51.120;6.956;2023-06-22T15:43:06;7.00;;;5.25;;
19848;SDS011;10085;51.120;6.956;2023-06-22T15:48:12;6.28;;;4.95;;
19848;SDS011;10085;51.120;6.956;2023-06-22T15:53:18;6.43;;;4.50;;
19848;SDS011;10085;51.120;6.956;2023-06-22T15:58:22;5.85;;;4.78;;
19848;SDS011;10085;51.120;6.956;2023-06-22T16:03:25;6.45;;;4.80;;
19848;SDS011;10085;51.120;6.956;2023-06-22T16:08:28;5.55;;;4.68;;
19848;SDS011;10085;51.120;6.956;2023-06-22T16:13:33;7.35;;;5.00;;
19848;SDS011;10085;51.120;6.956;2023-06-22T16:18:36;7.18;;;5.18;;
19848;SDS011;10085;51.120;6.956;2023-06-22T16:23:50;8.20;;;5.10;;
19848;SDS011;10085;51.120;6.956;2023-06-22T16:29:10;7.20;;;5.20;;
19848;SDS011;10085;51.120;6.956;2023-06-22T16:34:13;7.68;;;4.93;;
19848;SDS011;10085;51.120;6.956;2023-06-22T16:39:16;6.65;;;5.03;;
19848;SDS011;10085;51.120;6.956;2023-06-22T16:44:21;6.80;;;5.05;;
19848;SDS011;10085;51.120;6.956;2023-06-22T16:49:24;7.80;;;5.20;;
19848;SDS011;10085;51.120;6.956;2023-06-22T16:54:28;9.05;;;5.15;;
19848;SDS011;10085;51.120;6.956;2023-06-22T16:59:33;8.05;;;5.78;;
19848;SDS011;10085;51.120;6.956;2023-06-22T17:04:36;7.63;;;5.80;;
19848;SDS011;10085;51.120;6.956;2023-06-22T17:09:39;6.75;;;4.93;;
19848;SDS011;10085;51.120;6.956;2023-06-22T17:14:44;5.57;;;4.68;;
19848;SDS011;10085;51.120;6.956;2023-06-22T17:19:47;9.65;;;5.20;;
19848;SDS011;10085;51.120;6.956;2023-06-22T17:24:50;6.32;;;4.88;;
19848;SDS011;10085;51.120;6.956;2023-06-22T17:30:03;6.63;;;5.40;;
19848;SDS011;10085;51.120;6.956;2023-06-22T17:35:09;7.00;;;4.88;;
19848;SDS011;10085;51.120;6.956;2023-06-22T17:40:13;7.50;;;4.65;;
19848;SDS011;10085;51.120;6.956;2023-06-22T17:45:19;5.95;;;4.47;;
19848;SDS011;10085;51.120;6.956;2023-06-22T17:50:23;6.07;;;4.80;;
19848;SDS011;10085;51.120;6.956;2023-06-22T17:55:26;6.07;;;4.57;;
19848;SDS011;10085;51.120;6.956;2023-06-22T18:00:31;6.18;;;4.57;;
19848;SDS011;10085;51.120;6.956;2023-06-22T18:05:34;5.63;;;4.38;;
19848;SDS011;10085;51.120;6.956;2023-06-22T18:10:38;6.00;;;4.32;;
19848;SDS011;10085;51.120;6.956;2023-06-22T18:15:43;5.25;;;4.32;;
19848;SDS011;10085;51.120;6.956;2023-06-22T18:20:46;5.30;;;3.80;;
19848;SDS011;10085;51.120;6.956;2023-06-22T18:25:49;5.70;;;4.00;;
19848;SDS011;10085;51.120;6.956;2023-06-22T18:30:53;4.15;;;3.45;;
19848;SDS011;10085;51.120;6.956;2023-06-22T18:35:57;4.85;;;3.65;;
19848;SDS011;10085;51.120;6.956;2023-06-22T18:41:00;5.20;;;3.60;;
19848;SDS011;10085;51.120;6.956;2023-06-22T18:51:51;4.00;;;3.13;;
19848;SDS011;10085;51.120;6.956;2023-06-22T18:56:55;5.88;;;3.40;;
19848;SDS011;10085;51.120;6.956;2023-06-22T19:02:01;4.53;;;3.35;;
19848;SDS011;10085;51.120;6.956;2023-06-22T19:07:04;5.20;;;3.05;;
19848;SDS011;10085;51.120;6.956;2023-06-22T19:12:21;3.80;;;2.95;;
19848;SDS011;10085;51.120;6.956;2023-06-22T19:17:26;5.03;;;3.20;;
19848;SDS011;10085;51.120;6.956;2023-06-22T19:22:42;3.60;;;2.78;;
19848;SDS011;10085;51.120;6.956;2023-06-22T19:27:48;4.53;;;3.20;;
19848;SDS011;10085;51.120;6.956;2023-06-22T19:32:56;4.78;;;3.33;;
19848;SDS011;10085;51.120;6.956;2023-06-22T19:37:59;3.90;;;3.00;;
19848;SDS011;10085;51.120;6.956;2023-06-22T19:43:02;4.60;;;3.40;;
19848;SDS011;10085;51.120;6.956;2023-06-22T19:48:10;4.03;;;3.30;;
19848;SDS011;10085;51.120;6.956;2023-06-22T19:53:14;3.97;;;3.33;;
19848;SDS011;10085;51.120;6.956;2023-06-22T19:58:17;4.75;;;3.30;;
19848;SDS011;10085;51.120;6.956;2023-06-22T20:03:25;4.18;;;3.05;;
19848;SDS011;10085;51.120;6.956;2023-06-22T20:08:29;6.35;;;3.08;;
19848;SDS011;10085;51.120;6.956;2023-06-22T20:13:47;3.33;;;2.60;;
19848;SDS011;10085;51.120;6.956;2023-06-22T20:19:05;3.33;;;2.40;;
19848;SDS011;10085;51.120;6.956;2023-06-22T20:24:09;3.42;;;2.28;;
19848;SDS011;10085;51.120;6.956;2023-06-22T20:29:22;2.70;;;2.13;;
19848;SDS011;10085;51.120;6.956;2023-06-22T20:34:26;3.22;;;2.00;;
19848;SDS011;10085;51.120;6.956;2023-06-22T20:39:29;2.15;;;1.85;;
19848;SDS011;10085;51.120;6.956;2023-06-22T20:44:32;2.38;;;2.10;;
19848;SDS011;10085;51.120;6.956;2023-06-22T20:49:37;2.17;;;1.90;;
19848;SDS011;10085;51.120;6.956;2023-06-22T20:54:40;3.08;;;1.85;;
19848;SDS011;10085;51.120;6.956;2023-06-22T20:59:43;1.63;;;1.52;;
19848;SDS011;10085;51.120;6.956;2023-06-22T21:04:47;1.70;;;1.60;;
19848;SDS011;10085;51.120;6.956;2023-06-22T21:09:51;1.52;;;1.42;;
19848;SDS011;10085;51.120;6.956;2023-06-22T21:14:54;1.88;;;1.58;;
19848;SDS011;10085;51.120;6.956;2023-06-22T21:19:58;2.08;;;1.60;;
19848;SDS011;10085;51.120;6.956;2023-06-22T21:25:02;1.80;;;1.50;;
19848;SDS011;10085;51.120;6.956;2023-06-22T21:30:08;1.83;;;1.63;;
19848;SDS011;10085;51.120;6.956;2023-06-22T21:35:13;1.88;;;1.73;;
19848;SDS011;10085;51.120;6.956;2023-06-22T21:40:16;1.70;;;1.60;;
19848;SDS011;10085;51.120;6.956;2023-06-22T21:45:19;3.50;;;2.05;;
19848;SDS011;10085;51.120;6.956;2023-06-22T21:50:23;2.55;;;2.30;;
19848;SDS011;10085;51.120;6.956;2023-06-22T21:55:26;2.40;;;2.20;;
19848;SDS011;10085;51.120;6.956;2023-06-22T22:00:30;3.47;;;2.55;;
19848;SDS011;10085;51.120;6.956;2023-06-22T22:05:34;3.10;;;2.58;;
19848;SDS011;10085;51.120;6.956;2023-06-22T22:10:38;3.63;;;2.60;;
19848;SDS011;10085;51.120;6.956;2023-06-22T22:15:45;3.53;;;2.63;;
19848;SDS011;10085;51.120;6.956;2023-06-22T22:20:51;3.63;;;2.60;;
19848;SDS011;10085;51.120;6.956;2023-06-22T22:25:54;4.38;;;2.60;;
19848;SDS011;10085;51.120;6.956;2023-06-22T22:30:57;3.70;;;2.80;;
19848;SDS011;10085;51.120;6.956;2023-06-22T22:36:02;2.85;;;2.55;;
19848;SDS011;10085;51.120;6.956;2023-06-22T22:41:06;3.83;;;2.83;;
19848;SDS011;10085;51.120;6.956;2023-06-22T22:46:09;3.47;;;3.00;;
19848;SDS011;10085;51.120;6.956;2023-06-22T22:51:13;4.30;;;3.00;;
19848;SDS011;10085;51.120;6.956;2023-06-22T22:56:16;4.50;;;3.22;;
19848;SDS011;10085;51.120;6.956;2023-06-22T23:01:19;4.20;;;3.15;;
19848;SDS011;10085;51.120;6.956;2023-06-22T23:06:23;4.03;;;3.22;;
19848;SDS011;10085;51.120;6.956;2023-06-22T23:11:26;3.80;;;3.00;;
19848;SDS011;10085;51.120;6.956;2023-06-22T23:16:29;4.90;;;3.50;;
19848;SDS011;10085;51.120;6.956;2023-06-22T23:21:33;5.38;;;3.33;;
19848;SDS011;10085;51.120;6.956;2023-06-22T23:26:36;5.07;;;3.53;;
19848;SDS011;10085;51.120;6.956;2023-06-22T23:31:39;4.30;;;3.30;;
19848;SDS011;10085;51.120;6.956;2023-06-22T23:36:43;5.05;;;3.80;;
19848;SDS011;10085;51.120;6.956;2023-06-22T23:41:46;4.40;;;4.00;;
19848;SDS011;10085;51.120;6.956;2023-06-22T23:46:49;5.75;;;4.30;;
19848;SDS011;10085;51.120;6.956;2023-06-22T23:51:54;6.25;;;5.00;;
19848;SDS011;10085;51.120;6.956;2023-06-22T23:56:57;7.28;;;5.05;;
